createdAt,value
2019-01-20T00:00:38.805Z,1018.07
2019-01-20T00:01:47.630Z,1018.08
2019-01-20T00:02:56.458Z,1018.08
2019-01-20T00:04:05.346Z,1018.08
2019-01-20T00:05:14.702Z,1018.08
2019-01-20T00:06:24.062Z,1018.09
2019-01-20T00:07:32.874Z,1018.07
2019-01-20T00:08:41.681Z,1018.1
2019-01-20T00:09:50.602Z,1018.09
2019-01-20T00:10:59.670Z,1018.07
2019-01-20T00:12:09.291Z,1018.06
2019-01-20T00:13:18.138Z,1018.03
2019-01-20T00:14:26.972Z,1018.07
2019-01-20T00:15:36.181Z,1018.02
2019-01-20T00:16:45.272Z,1018.01
2019-01-20T00:17:54.075Z,1018.02
2019-01-20T00:19:03.157Z,1018.02
2019-01-20T00:20:12.050Z,1017.98
2019-01-20T00:21:21.579Z,1017.97
2019-01-20T00:22:30.663Z,1018.02
2019-01-20T00:23:39.497Z,1018.01
2019-01-20T00:24:48.328Z,1017.99
2019-01-20T00:25:57.441Z,1018.03
2019-01-20T00:27:06.840Z,1018.04
2019-01-20T00:28:15.942Z,1018.03
2019-01-20T00:29:25.046Z,1018.03
2019-01-20T00:30:34.135Z,1018.01
2019-01-20T00:31:43.499Z,1018.03
2019-01-20T00:32:52.628Z,1018.02
2019-01-20T00:34:01.718Z,1018.03
2019-01-20T00:35:11.004Z,1018.03
2019-01-20T00:36:20.829Z,1018.06
2019-01-20T00:37:30.437Z,1018.06
2019-01-20T00:38:39.278Z,1018.03
2019-01-20T00:39:48.380Z,1018.01
2019-01-20T00:40:57.486Z,1018.01
2019-01-20T00:42:06.610Z,1017.98
2019-01-20T00:43:15.689Z,1018
2019-01-20T00:44:24.895Z,1017.99
2019-01-20T00:45:33.965Z,1017.96
2019-01-20T00:46:42.796Z,1017.95
2019-01-20T00:47:52.159Z,1017.97
2019-01-20T00:49:01.242Z,1017.97
2019-01-20T00:50:10.375Z,1017.96
2019-01-20T00:51:19.443Z,1017.97
2019-01-20T00:52:28.562Z,1017.96
2019-01-20T00:53:37.702Z,1017.95
2019-01-20T00:54:47.042Z,1017.95
2019-01-20T00:55:56.180Z,1017.95
2019-01-20T00:57:05.023Z,1017.95
2019-01-20T00:58:14.099Z,1017.92
2019-01-20T00:59:23.180Z,1017.93
2019-01-20T01:00:32.013Z,1017.93
2019-01-20T01:01:41.124Z,1017.91
2019-01-20T01:02:50.479Z,1017.92
2019-01-20T01:03:59.592Z,1017.89
2019-01-20T01:05:08.670Z,1017.89
2019-01-20T01:06:17.487Z,1017.9
2019-01-20T01:07:26.642Z,1017.92
2019-01-20T01:08:35.471Z,1017.91
2019-01-20T01:09:44.283Z,1017.9
2019-01-20T01:10:53.088Z,1017.93
2019-01-20T01:12:02.162Z,1017.93
2019-01-20T01:13:11.071Z,1017.93
2019-01-20T01:14:20.434Z,1017.93
2019-01-20T01:15:29.250Z,1017.9
2019-01-20T01:16:38.064Z,1017.95
2019-01-20T01:17:46.902Z,1017.92
2019-01-20T01:18:56.009Z,1017.94
2019-01-20T01:20:05.067Z,1017.91
2019-01-20T01:21:14.398Z,1017.92
2019-01-20T01:22:23.237Z,1017.96
2019-01-20T01:23:32.058Z,1017.95
2019-01-20T01:24:40.980Z,1017.99
2019-01-20T01:25:50.083Z,1017.94
2019-01-20T01:26:58.972Z,1017.91
2019-01-20T01:28:07.790Z,1017.96
2019-01-20T01:29:16.585Z,1017.96
2019-01-20T01:30:26.036Z,1017.95
2019-01-20T01:31:34.879Z,1017.95
2019-01-20T01:32:43.969Z,1017.91
2019-01-20T01:33:53.072Z,1017.93
2019-01-20T01:35:01.889Z,1017.9
2019-01-20T01:36:11.125Z,1017.88
2019-01-20T01:37:20.197Z,1017.88
2019-01-20T01:38:29.008Z,1017.92
2019-01-20T01:39:37.842Z,1017.87
2019-01-20T01:40:46.922Z,1017.9
2019-01-20T01:41:55.752Z,1017.92
2019-01-20T01:43:04.831Z,1017.94
2019-01-20T01:44:13.638Z,1017.94
2019-01-20T01:45:22.480Z,1017.95
2019-01-20T01:46:31.321Z,1017.92
2019-01-20T01:47:40.219Z,1017.92
2019-01-20T01:48:49.312Z,1017.88
2019-01-20T01:49:58.672Z,1017.93
2019-01-20T01:51:07.749Z,1017.89
2019-01-20T01:52:17.085Z,1017.91
2019-01-20T01:53:25.937Z,1017.93
2019-01-20T01:54:35.004Z,1017.9
2019-01-20T01:55:44.091Z,1017.93
2019-01-20T01:56:52.938Z,1017.9
2019-01-20T01:58:01.779Z,1017.88
2019-01-20T01:59:11.490Z,1017.92
2019-01-20T02:00:20.302Z,1017.92
2019-01-20T02:01:29.406Z,1017.92
2019-01-20T02:02:38.484Z,1017.99
2019-01-20T02:03:47.852Z,1017.97
2019-01-20T02:04:57.302Z,1017.98
2019-01-20T02:06:06.648Z,1017.96
2019-01-20T02:07:15.993Z,1017.97
2019-01-20T02:08:37.114Z,1017.93
2019-01-20T02:09:46.182Z,1017.99
2019-01-20T02:10:55.553Z,1017.99
2019-01-20T02:12:04.365Z,1017.97
2019-01-20T02:13:13.718Z,1018.01
2019-01-20T02:14:23.168Z,1017.97
2019-01-20T02:15:32.253Z,1017.97
2019-01-20T02:16:41.454Z,1017.98
2019-01-20T02:17:50.559Z,1017.97
2019-01-20T02:19:00.198Z,1017.97
2019-01-20T02:20:09.036Z,1017.99
2019-01-20T02:21:18.172Z,1018
2019-01-20T02:22:27.090Z,1017.99
2019-01-20T02:23:36.163Z,1018.02
2019-01-20T02:24:45.260Z,1018.04
2019-01-20T02:25:54.062Z,1018.03
2019-01-20T02:27:03.413Z,1018.04
2019-01-20T02:28:12.557Z,1018.07
2019-01-20T02:29:21.667Z,1018.09
2019-01-20T02:30:30.496Z,1018.04
2019-01-20T02:31:39.589Z,1018.1
2019-01-20T02:32:48.934Z,1018.11
2019-01-20T02:33:58.125Z,1018.1
2019-01-20T02:35:07.228Z,1018.1
2019-01-20T02:36:16.566Z,1018.15
2019-01-20T02:37:25.929Z,1018.12
2019-01-20T02:38:34.766Z,1018.14
2019-01-20T02:39:43.706Z,1018.13
2019-01-20T02:40:53.045Z,1018.17
2019-01-20T02:42:02.403Z,1018.15
2019-01-20T02:43:11.753Z,1018.16
2019-01-20T02:44:20.881Z,1018.17
2019-01-20T02:45:29.795Z,1018.15
2019-01-20T02:46:38.609Z,1018.18
2019-01-20T02:47:47.952Z,1018.14
2019-01-20T02:48:56.806Z,1018.11
2019-01-20T02:50:06.166Z,1018.11
2019-01-20T02:51:15.118Z,1018.14
2019-01-20T02:52:24.186Z,1018.15
2019-01-20T02:53:33.259Z,1018.15
2019-01-20T02:54:42.612Z,1018.13
2019-01-20T02:55:51.685Z,1018.14
2019-01-20T02:57:00.823Z,1018.14
2019-01-20T02:58:10.186Z,1018.11
2019-01-20T02:59:19.350Z,1018.1
2019-01-20T03:00:28.466Z,1018.08
2019-01-20T03:01:38.107Z,1018.08
2019-01-20T03:02:47.406Z,1018.04
2019-01-20T03:03:56.751Z,1018.09
2019-01-20T03:05:05.853Z,1018.07
2019-01-20T03:06:15.472Z,1018.11
2019-01-20T03:07:24.535Z,1018.1
2019-01-20T03:08:33.643Z,1018.13
2019-01-20T03:09:42.513Z,1018.12
2019-01-20T03:10:51.589Z,1018.14
2019-01-20T03:12:03.542Z,1018.13
2019-01-20T03:13:13.148Z,1018.13
2019-01-20T03:14:22.071Z,1018.16
2019-01-20T03:15:31.165Z,1018.13
2019-01-20T03:16:40.272Z,1018.1
2019-01-20T03:17:49.372Z,1018.07
2019-01-20T03:18:58.473Z,1018.06
2019-01-20T03:20:07.410Z,1018.08
2019-01-20T03:21:16.795Z,1018.07
2019-01-20T03:22:25.611Z,1018.08
2019-01-20T03:23:34.702Z,1018.09
2019-01-20T03:24:44.076Z,1018.06
2019-01-20T03:25:53.013Z,1018.05
2019-01-20T03:27:01.843Z,1018.04
2019-01-20T03:28:10.914Z,1018.04
2019-01-20T03:29:20.267Z,1018.07
2019-01-20T03:30:29.091Z,1018.1
2019-01-20T03:31:37.982Z,1018.07
2019-01-20T03:32:47.363Z,1018.08
2019-01-20T03:33:56.461Z,1018.05
2019-01-20T03:35:05.553Z,1018.06
2019-01-20T03:36:14.379Z,1018.06
2019-01-20T03:37:23.278Z,1018.04
2019-01-20T03:38:32.355Z,1018.03
2019-01-20T03:39:41.430Z,1018.01
2019-01-20T03:40:50.239Z,1018.04
2019-01-20T03:41:59.334Z,1018.01
2019-01-20T03:43:16.670Z,1018.05
2019-01-20T03:44:25.752Z,1018.07
2019-01-20T03:45:34.591Z,1018.1
2019-01-20T03:46:43.955Z,1018.11
2019-01-20T03:47:53.337Z,1018.07
2019-01-20T03:49:02.219Z,1018.08
2019-01-20T03:50:11.101Z,1018.08
2019-01-20T03:51:21.042Z,1018.05
2019-01-20T03:52:30.482Z,1018.06
2019-01-20T03:53:39.302Z,1018.11
2019-01-20T03:54:48.990Z,1018.07
2019-01-20T03:55:57.901Z,1018.11
2019-01-20T03:57:07.532Z,1018.09
2019-01-20T03:58:16.614Z,1018.1
2019-01-20T03:59:25.711Z,1018.1
2019-01-20T04:00:34.838Z,1018.09
2019-01-20T04:01:43.655Z,1018.06
2019-01-20T04:02:52.728Z,1018.08
2019-01-20T04:04:02.105Z,1018.09
2019-01-20T04:05:10.949Z,1018.09
2019-01-20T04:06:19.822Z,1018.1
2019-01-20T04:07:28.905Z,1018.08
2019-01-20T04:08:38.014Z,1018.09
2019-01-20T04:09:46.822Z,1018.09
2019-01-20T04:10:55.658Z,1018.09
2019-01-20T04:12:04.488Z,1018.11
2019-01-20T04:13:21.269Z,1018.09
2019-01-20T04:14:30.642Z,1018.13
2019-01-20T04:15:39.741Z,1018.11
2019-01-20T04:16:48.838Z,1018.12
2019-01-20T04:17:57.753Z,1018.11
2019-01-20T04:19:06.659Z,1018.13
2019-01-20T04:20:15.476Z,1018.12
2019-01-20T04:21:24.554Z,1018.15
2019-01-20T04:22:33.391Z,1018.15
2019-01-20T04:23:42.531Z,1018.18
2019-01-20T04:24:52.606Z,1018.17
2019-01-20T04:26:01.425Z,1018.17
2019-01-20T04:27:10.243Z,1018.19
2019-01-20T04:28:19.076Z,1018.15
2019-01-20T04:29:28.192Z,1018.13
2019-01-20T04:30:37.530Z,1018.17
2019-01-20T04:31:46.622Z,1018.15
2019-01-20T04:32:56.242Z,1018.16
2019-01-20T04:34:05.076Z,1018.14
2019-01-20T04:35:14.202Z,1018.15
2019-01-20T04:36:23.833Z,1018.13
2019-01-20T04:37:32.658Z,1018.14
2019-01-20T04:38:41.741Z,1018.14
2019-01-20T04:39:50.574Z,1018.1
2019-01-20T04:41:00.239Z,1018.14
2019-01-20T04:42:09.068Z,1018.11
2019-01-20T04:43:17.884Z,1018.08
2019-01-20T04:44:26.961Z,1018.12
2019-01-20T04:45:36.039Z,1018.11
2019-01-20T04:46:44.859Z,1018.09
2019-01-20T04:47:54.212Z,1018.1
2019-01-20T04:49:03.326Z,1018.11
2019-01-20T04:50:12.412Z,1018.12
2019-01-20T04:51:21.258Z,1018.12
2019-01-20T04:52:30.502Z,1018.13
2019-01-20T04:53:39.343Z,1018.09
2019-01-20T04:54:48.156Z,1018.15
2019-01-20T04:55:57.004Z,1018.11
2019-01-20T04:57:05.822Z,1018.14
2019-01-20T04:58:14.992Z,1018.14
2019-01-20T04:59:24.349Z,1018.15
2019-01-20T05:00:33.173Z,1018.14
2019-01-20T05:01:42.277Z,1018.12
2019-01-20T05:02:51.388Z,1018.13
2019-01-20T05:04:01.081Z,1018.16
2019-01-20T05:05:10.475Z,1018.15
2019-01-20T05:06:19.855Z,1018.18
2019-01-20T05:07:28.946Z,1018.22
2019-01-20T05:08:38.317Z,1018.21
2019-01-20T05:09:47.454Z,1018.17
2019-01-20T05:10:56.817Z,1018.19
2019-01-20T05:12:05.663Z,1018.22
2019-01-20T05:13:14.767Z,1018.25
2019-01-20T05:14:23.599Z,1018.23
2019-01-20T05:15:32.457Z,1018.25
2019-01-20T05:16:41.282Z,1018.23
2019-01-20T05:17:50.383Z,1018.26
2019-01-20T05:18:59.748Z,1018.25
2019-01-20T05:20:08.566Z,1018.25
2019-01-20T05:21:17.531Z,1018.27
2019-01-20T05:22:26.893Z,1018.31
2019-01-20T05:23:35.984Z,1018.29
2019-01-20T05:24:44.802Z,1018.31
2019-01-20T05:25:53.903Z,1018.32
2019-01-20T05:27:03.083Z,1018.35
2019-01-20T05:28:12.296Z,1018.4
2019-01-20T05:29:21.353Z,1018.38
2019-01-20T05:30:30.716Z,1018.37
2019-01-20T05:31:39.800Z,1018.42
2019-01-20T05:32:48.969Z,1018.42
2019-01-20T05:33:58.051Z,1018.41
2019-01-20T05:35:07.142Z,1018.39
2019-01-20T05:36:16.238Z,1018.4
2019-01-20T05:37:25.331Z,1018.36
2019-01-20T05:38:34.395Z,1018.37
2019-01-20T05:39:43.210Z,1018.34
2019-01-20T05:40:52.288Z,1018.36
2019-01-20T05:42:01.102Z,1018.32
2019-01-20T05:43:10.198Z,1018.34
2019-01-20T05:44:19.289Z,1018.32
2019-01-20T05:45:28.637Z,1018.33
2019-01-20T05:46:37.719Z,1018.33
2019-01-20T05:47:46.564Z,1018.38
2019-01-20T05:48:55.417Z,1018.33
2019-01-20T05:50:04.851Z,1018.33
2019-01-20T05:51:13.946Z,1018.36
2019-01-20T05:52:23.046Z,1018.32
2019-01-20T05:53:32.165Z,1018.33
2019-01-20T05:54:40.994Z,1018.34
2019-01-20T05:55:50.082Z,1018.31
2019-01-20T05:56:58.969Z,1018.36
2019-01-20T05:58:07.780Z,1018.34
2019-01-20T05:59:17.143Z,1018.41
2019-01-20T06:00:26.222Z,1018.39
2019-01-20T06:01:35.593Z,1018.4
2019-01-20T06:02:44.680Z,1018.42
2019-01-20T06:03:53.560Z,1018.39
2019-01-20T06:05:02.363Z,1018.42
2019-01-20T06:06:11.181Z,1018.44
2019-01-20T06:07:20.593Z,1018.42
2019-01-20T06:08:29.679Z,1018.46
2019-01-20T06:09:38.788Z,1018.45
2019-01-20T06:10:47.896Z,1018.46
2019-01-20T06:11:56.745Z,1018.5
2019-01-20T06:13:05.685Z,1018.55
2019-01-20T06:14:14.810Z,1018.55
2019-01-20T06:15:24.153Z,1018.55
2019-01-20T06:16:34.051Z,1018.55
2019-01-20T06:17:43.125Z,1018.53
2019-01-20T06:18:52.885Z,1018.5
2019-01-20T06:20:02.839Z,1018.49
2019-01-20T06:21:12.201Z,1018.45
2019-01-20T06:22:21.804Z,1018.36
2019-01-20T06:23:31.848Z,1018.35
2019-01-20T06:24:40.761Z,1018.35
2019-01-20T06:25:49.834Z,1018.4
2019-01-20T06:26:58.658Z,1018.41
2019-01-20T06:28:07.577Z,1018.51
2019-01-20T06:29:16.398Z,1018.55
2019-01-20T06:30:25.744Z,1018.61
2019-01-20T06:31:34.833Z,1018.58
2019-01-20T06:32:43.903Z,1018.56
2019-01-20T06:33:52.993Z,1018.47
2019-01-20T06:35:01.810Z,1018.42
2019-01-20T06:36:11.002Z,1018.36
2019-01-20T06:37:20.100Z,1018.41
2019-01-20T06:38:29.436Z,1018.47
2019-01-20T06:39:38.520Z,1018.54
2019-01-20T06:40:47.357Z,1018.65
2019-01-20T06:41:57.246Z,1018.67
2019-01-20T06:43:06.086Z,1018.69
2019-01-20T06:44:15.443Z,1018.64
2019-01-20T06:45:24.269Z,1018.58
2019-01-20T06:46:33.625Z,1018.55
2019-01-20T06:47:42.479Z,1018.46
2019-01-20T06:48:51.859Z,1018.51
2019-01-20T06:50:00.744Z,1018.49
2019-01-20T06:51:09.571Z,1018.6
2019-01-20T06:52:18.670Z,1018.66
2019-01-20T06:53:27.833Z,1018.73
2019-01-20T06:54:36.909Z,1018.74
2019-01-20T06:55:46.261Z,1018.7
2019-01-20T06:56:55.349Z,1018.66
2019-01-20T06:58:04.212Z,1018.62
2019-01-20T06:59:13.398Z,1018.63
2019-01-20T07:00:22.213Z,1018.64
2019-01-20T07:01:31.095Z,1018.66
2019-01-20T07:02:40.174Z,1018.7
2019-01-20T07:03:49.259Z,1018.77
2019-01-20T07:04:58.434Z,1018.84
2019-01-20T07:06:07.515Z,1018.9
2019-01-20T07:07:16.608Z,1018.88
2019-01-20T07:08:25.687Z,1018.84
2019-01-20T07:09:34.536Z,1018.85
2019-01-20T07:10:44.003Z,1018.86
2019-01-20T07:11:53.103Z,1018.89
2019-01-20T07:13:08.852Z,1018.92
2019-01-20T07:14:18.563Z,1018.95
2019-01-20T07:15:27.936Z,1018.97
2019-01-20T07:16:36.811Z,1018.95
2019-01-20T07:17:45.905Z,1018.99
2019-01-20T07:18:55.010Z,1019.02
2019-01-20T07:20:04.363Z,1019.08
2019-01-20T07:21:13.204Z,1019.13
2019-01-20T07:22:22.382Z,1019.19
2019-01-20T07:23:31.729Z,1019.2
2019-01-20T07:24:40.830Z,1019.22
2019-01-20T07:25:49.643Z,1019.23
2019-01-20T07:26:58.461Z,1019.25
2019-01-20T07:28:07.901Z,1019.26
2019-01-20T07:29:16.781Z,1019.27
2019-01-20T07:30:27.443Z,1019.25
2019-01-20T07:31:36.258Z,1019.25
2019-01-20T07:32:45.065Z,1019.29
2019-01-20T07:33:54.422Z,1019.25
2019-01-20T07:35:04.027Z,1019.25
2019-01-20T07:36:13.393Z,1019.2
2019-01-20T07:37:22.764Z,1019.21
2019-01-20T07:38:31.596Z,1019.21
2019-01-20T07:39:40.735Z,1019.22
2019-01-20T07:40:50.111Z,1019.27
2019-01-20T07:41:59.173Z,1019.22
2019-01-20T07:43:07.978Z,1019.27
2019-01-20T07:44:23.876Z,1019.27
2019-01-20T07:45:32.750Z,1019.27
2019-01-20T07:46:41.572Z,1019.29
2019-01-20T07:47:50.646Z,1019.27
2019-01-20T07:48:59.755Z,1019.3
2019-01-20T07:50:08.831Z,1019.27
2019-01-20T07:51:18.270Z,1019.32
2019-01-20T07:52:27.333Z,1019.36
2019-01-20T07:53:36.721Z,1019.38
2019-01-20T07:54:45.825Z,1019.34
2019-01-20T07:55:54.957Z,1019.33
2019-01-20T07:57:03.876Z,1019.27
2019-01-20T07:58:12.682Z,1019.29
2019-01-20T07:59:22.081Z,1019.29
2019-01-20T08:00:31.444Z,1019.32
2019-01-20T08:01:40.254Z,1019.31
2019-01-20T08:02:49.724Z,1019.37
2019-01-20T08:03:58.811Z,1019.38
2019-01-20T08:05:08.131Z,1019.36
2019-01-20T08:06:17.216Z,1019.4
2019-01-20T08:07:26.048Z,1019.42
2019-01-20T08:08:34.980Z,1019.46
2019-01-20T08:09:44.323Z,1019.45
2019-01-20T08:10:53.391Z,1019.45
2019-01-20T08:12:02.799Z,1019.49
2019-01-20T08:13:12.121Z,1019.51
2019-01-20T08:14:26.994Z,1019.5
2019-01-20T08:15:35.802Z,1019.47
2019-01-20T08:16:45.146Z,1019.5
2019-01-20T08:17:54.245Z,1019.53
2019-01-20T08:19:03.333Z,1019.51
2019-01-20T08:20:12.751Z,1019.53
2019-01-20T08:21:21.580Z,1019.54
2019-01-20T08:22:30.928Z,1019.56
2019-01-20T08:23:40.004Z,1019.58
2019-01-20T08:24:49.344Z,1019.58
2019-01-20T08:25:58.153Z,1019.56
2019-01-20T08:27:07.243Z,1019.56
2019-01-20T08:28:16.341Z,1019.64
2019-01-20T08:29:25.155Z,1019.59
2019-01-20T08:30:34.519Z,1019.64
2019-01-20T08:31:43.656Z,1019.64
2019-01-20T08:32:52.504Z,1019.62
2019-01-20T08:34:01.340Z,1019.68
2019-01-20T08:35:10.429Z,1019.67
2019-01-20T08:36:19.534Z,1019.7
2019-01-20T08:37:29.197Z,1019.66
2019-01-20T08:38:39.190Z,1019.68
2019-01-20T08:39:48.529Z,1019.7
2019-01-20T08:40:57.326Z,1019.73
2019-01-20T08:42:06.157Z,1019.74
2019-01-20T08:43:15.044Z,1019.73
2019-01-20T08:44:31.943Z,1019.71
2019-01-20T08:45:41.296Z,1019.73
2019-01-20T08:46:50.126Z,1019.76
2019-01-20T08:47:59.215Z,1019.73
2019-01-20T08:49:08.057Z,1019.72
2019-01-20T08:50:17.149Z,1019.73
2019-01-20T08:51:26.222Z,1019.79
2019-01-20T08:52:35.049Z,1019.79
2019-01-20T08:53:43.873Z,1019.75
2019-01-20T08:54:53.091Z,1019.8
2019-01-20T08:56:03.009Z,1019.77
2019-01-20T08:57:11.809Z,1019.85
2019-01-20T08:58:20.914Z,1019.85
2019-01-20T08:59:29.835Z,1019.88
2019-01-20T09:00:38.668Z,1019.88
2019-01-20T09:01:47.759Z,1019.92
2019-01-20T09:02:56.845Z,1019.91
2019-01-20T09:04:05.694Z,1019.97
2019-01-20T09:05:14.770Z,1019.96
2019-01-20T09:06:23.971Z,1019.99
2019-01-20T09:07:32.855Z,1020.03
2019-01-20T09:08:41.950Z,1020.05
2019-01-20T09:09:50.777Z,1020.05
2019-01-20T09:10:59.872Z,1020.06
2019-01-20T09:12:09.051Z,1020.12
2019-01-20T09:13:17.869Z,1020.15
2019-01-20T09:14:27.454Z,1020.2
2019-01-20T09:15:36.551Z,1020.2
2019-01-20T09:16:45.670Z,1020.19
2019-01-20T09:17:55.123Z,1020.19
2019-01-20T09:19:03.933Z,1020.21
2019-01-20T09:20:12.776Z,1020.25
2019-01-20T09:21:21.858Z,1020.26
2019-01-20T09:22:30.936Z,1020.27
2019-01-20T09:23:39.851Z,1020.29
2019-01-20T09:24:50.398Z,1020.3
2019-01-20T09:25:59.217Z,1020.32
2019-01-20T09:27:08.034Z,1020.37
2019-01-20T09:28:17.157Z,1020.34
2019-01-20T09:29:26.240Z,1020.4
2019-01-20T09:30:35.577Z,1020.38
2019-01-20T09:31:44.398Z,1020.44
2019-01-20T09:32:53.491Z,1020.48
2019-01-20T09:34:02.296Z,1020.49
2019-01-20T09:35:11.234Z,1020.46
2019-01-20T09:36:20.336Z,1020.45
2019-01-20T09:37:29.147Z,1020.5
2019-01-20T09:38:37.990Z,1020.47
2019-01-20T09:39:47.333Z,1020.46
2019-01-20T09:40:56.803Z,1020.48
2019-01-20T09:42:07.806Z,1020.46
2019-01-20T09:43:17.422Z,1020.46
2019-01-20T09:44:26.495Z,1020.43
2019-01-20T09:45:35.582Z,1020.43
2019-01-20T09:46:44.698Z,1020.5
2019-01-20T09:47:53.774Z,1020.43
2019-01-20T09:49:03.111Z,1020.49
2019-01-20T09:50:12.210Z,1020.5
2019-01-20T09:51:21.308Z,1020.5
2019-01-20T09:52:30.519Z,1020.51
2019-01-20T09:53:39.598Z,1020.5
2019-01-20T09:54:48.425Z,1020.55
2019-01-20T09:55:57.245Z,1020.51
2019-01-20T09:57:06.592Z,1020.53
2019-01-20T09:58:16.054Z,1020.55
2019-01-20T09:59:26.128Z,1020.51
2019-01-20T10:00:34.965Z,1020.51
2019-01-20T10:01:43.777Z,1020.51
2019-01-20T10:02:52.603Z,1020.5
2019-01-20T10:04:01.942Z,1020.51
2019-01-20T10:05:11.054Z,1020.52
2019-01-20T10:06:21.868Z,1020.55
2019-01-20T10:07:30.949Z,1020.58
2019-01-20T10:08:39.789Z,1020.61
2019-01-20T10:09:48.961Z,1020.59
2019-01-20T10:10:57.789Z,1020.62
2019-01-20T10:12:06.871Z,1020.67
2019-01-20T10:13:15.973Z,1020.65
2019-01-20T10:14:25.061Z,1020.65
2019-01-20T10:15:33.987Z,1020.65
2019-01-20T10:16:43.078Z,1020.64
2019-01-20T10:17:53.279Z,1020.66
2019-01-20T10:19:02.390Z,1020.69
2019-01-20T10:20:11.538Z,1020.65
2019-01-20T10:21:20.616Z,1020.64
2019-01-20T10:22:29.706Z,1020.68
2019-01-20T10:23:39.051Z,1020.71
2019-01-20T10:24:48.411Z,1020.69
2019-01-20T10:25:57.229Z,1020.72
2019-01-20T10:27:06.107Z,1020.72
2019-01-20T10:28:15.206Z,1020.66
2019-01-20T10:29:24.035Z,1020.74
2019-01-20T10:30:33.122Z,1020.66
2019-01-20T10:31:41.964Z,1020.72
2019-01-20T10:32:51.433Z,1020.73
2019-01-20T10:34:00.271Z,1020.75
2019-01-20T10:35:09.074Z,1020.73
2019-01-20T10:36:17.919Z,1020.75
2019-01-20T10:37:27.003Z,1020.74
2019-01-20T10:38:37.337Z,1020.73
2019-01-20T10:39:46.551Z,1020.73
2019-01-20T10:40:55.919Z,1020.73
2019-01-20T10:42:04.983Z,1020.74
2019-01-20T10:43:13.836Z,1020.74
2019-01-20T10:44:22.908Z,1020.76
2019-01-20T10:45:31.718Z,1020.69
2019-01-20T10:46:40.820Z,1020.82
2019-01-20T10:47:49.902Z,1020.8
2019-01-20T10:48:59.542Z,1020.78
2019-01-20T10:50:10.128Z,1020.77
2019-01-20T10:51:18.965Z,1020.79
2019-01-20T10:52:27.781Z,1020.79
2019-01-20T10:53:36.621Z,1020.75
2019-01-20T10:54:45.981Z,1020.73
2019-01-20T10:55:55.091Z,1020.74
2019-01-20T10:57:04.166Z,1020.74
2019-01-20T10:58:13.251Z,1020.74
2019-01-20T10:59:22.127Z,1020.71
2019-01-20T11:00:31.214Z,1020.75
2019-01-20T11:01:41.173Z,1020.73
2019-01-20T11:02:50.259Z,1020.76
2019-01-20T11:03:59.355Z,1020.84
2019-01-20T11:05:08.719Z,1020.89
2019-01-20T11:06:28.986Z,1020.91
2019-01-20T11:07:38.417Z,1020.92
2019-01-20T11:08:48.028Z,1020.9
2019-01-20T11:09:57.680Z,1020.82
2019-01-20T11:11:06.497Z,1020.85
2019-01-20T11:12:15.560Z,1020.83
2019-01-20T11:13:24.497Z,1020.78
2019-01-20T11:14:33.302Z,1020.79
2019-01-20T11:15:42.622Z,1020.8
2019-01-20T11:16:51.958Z,1020.82
2019-01-20T11:18:01.300Z,1020.82
2019-01-20T11:19:10.410Z,1020.78
2019-01-20T11:20:19.490Z,1020.84
2019-01-20T11:21:28.567Z,1020.89
2019-01-20T11:22:38.790Z,1020.93
2019-01-20T11:23:48.172Z,1020.9
2019-01-20T11:24:56.996Z,1020.93
2019-01-20T11:26:05.814Z,1020.93
2019-01-20T11:27:14.870Z,1020.91
2019-01-20T11:28:24.434Z,1020.91
2019-01-20T11:29:33.634Z,1020.94
2019-01-20T11:30:43.027Z,1020.87
2019-01-20T11:31:52.100Z,1020.9
2019-01-20T11:33:00.917Z,1020.89
2019-01-20T11:34:10.021Z,1020.87
2019-01-20T11:35:19.168Z,1020.86
2019-01-20T11:36:30.167Z,1020.86
2019-01-20T11:37:39.244Z,1020.79
2019-01-20T11:38:48.309Z,1020.83
2019-01-20T11:39:57.118Z,1020.81
2019-01-20T11:41:06.224Z,1020.82
2019-01-20T11:42:15.293Z,1020.83
2019-01-20T11:43:24.706Z,1020.83
2019-01-20T11:44:34.054Z,1020.86
2019-01-20T11:45:43.125Z,1020.87
2019-01-20T11:46:51.943Z,1020.87
2019-01-20T11:48:00.855Z,1020.89
2019-01-20T11:49:09.694Z,1020.86
2019-01-20T11:50:18.778Z,1020.91
2019-01-20T11:51:27.882Z,1020.93
2019-01-20T11:52:36.694Z,1020.93
2019-01-20T11:53:46.153Z,1020.9
2019-01-20T11:54:54.998Z,1020.91
2019-01-20T11:56:03.823Z,1020.88
2019-01-20T11:57:12.662Z,1020.89
2019-01-20T11:58:21.476Z,1020.87
2019-01-20T11:59:30.585Z,1020.83
2019-01-20T12:00:39.413Z,1020.87
2019-01-20T12:01:48.754Z,1020.89
2019-01-20T12:02:58.230Z,1020.87
2019-01-20T12:04:07.570Z,1020.86
2019-01-20T12:05:16.551Z,1020.89
2019-01-20T12:06:25.631Z,1020.89
2019-01-20T12:07:34.538Z,1020.93
2019-01-20T12:08:43.630Z,1020.94
2019-01-20T12:09:52.456Z,1020.98
2019-01-20T12:11:01.296Z,1020.96
2019-01-20T12:12:10.651Z,1020.98
2019-01-20T12:13:20.022Z,1020.99
2019-01-20T12:14:29.647Z,1020.93
2019-01-20T12:15:39.021Z,1020.96
2019-01-20T12:16:48.208Z,1020.9
2019-01-20T12:17:57.562Z,1020.92
2019-01-20T12:19:06.655Z,1020.85
2019-01-20T12:20:15.497Z,1020.9
2019-01-20T12:21:24.341Z,1020.88
2019-01-20T12:22:33.258Z,1020.88
2019-01-20T12:23:42.084Z,1020.93
2019-01-20T12:24:51.168Z,1020.92
2019-01-20T12:26:00.245Z,1020.98
2019-01-20T12:27:09.080Z,1020.96
2019-01-20T12:28:17.917Z,1020.95
2019-01-20T12:29:27.550Z,1020.99
2019-01-20T12:30:36.362Z,1021.03
2019-01-20T12:31:45.268Z,1021.03
2019-01-20T12:32:54.336Z,1021.06
2019-01-20T12:34:03.469Z,1021.08
2019-01-20T12:35:12.305Z,1021.1
2019-01-20T12:36:21.136Z,1021.08
2019-01-20T12:37:30.212Z,1021.06
2019-01-20T12:38:39.563Z,1021.04
2019-01-20T12:39:49.046Z,1021.03
2019-01-20T12:40:58.396Z,1020.99
2019-01-20T12:42:07.222Z,1020.98
2019-01-20T12:43:16.048Z,1020.97
2019-01-20T12:44:31.317Z,1020.96
2019-01-20T12:45:40.616Z,1020.92
2019-01-20T12:46:49.712Z,1020.92
2019-01-20T12:47:58.800Z,1020.89
2019-01-20T12:49:07.626Z,1020.9
2019-01-20T12:50:16.719Z,1020.93
2019-01-20T12:51:28.562Z,1020.88
2019-01-20T12:52:37.819Z,1020.9
2019-01-20T12:53:46.639Z,1020.89
2019-01-20T12:54:55.980Z,1020.87
2019-01-20T12:56:04.801Z,1020.91
2019-01-20T12:57:13.884Z,1020.86
2019-01-20T12:58:22.993Z,1020.89
2019-01-20T12:59:31.846Z,1020.9
2019-01-20T13:00:40.919Z,1020.92
2019-01-20T13:01:49.756Z,1020.91
2019-01-20T13:02:58.681Z,1020.92
2019-01-20T13:04:07.510Z,1020.89
2019-01-20T13:05:16.329Z,1020.93
2019-01-20T13:06:25.161Z,1020.91
2019-01-20T13:07:34.787Z,1020.91
2019-01-20T13:08:43.642Z,1020.9
2019-01-20T13:09:52.770Z,1020.93
2019-01-20T13:11:01.832Z,1020.92
2019-01-20T13:12:10.906Z,1020.9
2019-01-20T13:13:19.782Z,1020.92
2019-01-20T13:14:28.605Z,1020.93
2019-01-20T13:15:43.881Z,1020.96
2019-01-20T13:16:52.699Z,1021
2019-01-20T13:18:01.516Z,1021
2019-01-20T13:19:10.339Z,1021
2019-01-20T13:20:19.214Z,1020.99
2019-01-20T13:21:28.310Z,1021.01
2019-01-20T13:22:37.392Z,1021.02
2019-01-20T13:23:46.479Z,1021.04
2019-01-20T13:24:55.560Z,1021.06
2019-01-20T13:26:04.775Z,1021.05
2019-01-20T13:27:13.591Z,1021.08
2019-01-20T13:28:22.673Z,1021.12
2019-01-20T13:29:32.310Z,1021.09
2019-01-20T13:30:41.383Z,1021.07
2019-01-20T13:31:50.522Z,1021.12
2019-01-20T13:32:59.612Z,1021.12
2019-01-20T13:34:08.438Z,1021.03
2019-01-20T13:35:17.548Z,1021.12
2019-01-20T13:36:26.355Z,1021.08
2019-01-20T13:37:37.549Z,1021.11
2019-01-20T13:38:46.368Z,1021.12
2019-01-20T13:39:55.216Z,1021.13
2019-01-20T13:41:04.301Z,1021.05
2019-01-20T13:42:13.128Z,1021.06
2019-01-20T13:43:22.253Z,1021.09
2019-01-20T13:44:31.318Z,1021.13
2019-01-20T13:45:46.457Z,1021.17
2019-01-20T13:46:55.259Z,1021.12
2019-01-20T13:48:04.335Z,1021.15
2019-01-20T13:49:14.007Z,1021.13
2019-01-20T13:50:23.097Z,1021.13
2019-01-20T13:51:31.931Z,1021.1
2019-01-20T13:52:41.041Z,1021.08
2019-01-20T13:53:49.858Z,1021.09
2019-01-20T13:54:58.943Z,1021.12
2019-01-20T13:56:08.039Z,1021.08
2019-01-20T13:57:17.405Z,1021.08
2019-01-20T13:58:26.753Z,1021.09
2019-01-20T13:59:35.593Z,1021.09
2019-01-20T14:00:45.046Z,1021.09